ePrivacy and GPDR Cookie Consent by Cookie Consent
EmailTwitter


Surface observations / Quebec / CYUL (71627)

Regions: Quebec | Canada | USA | Europe | France | UK | Elsewhere
Station
Display
Info & Location for CYUL (71627) | Help decoding METAR

Weather Conditions observed on 2021/10/25 at 22:20 UTC at MONTREAL INTL A, QB (CYUL)

Sky conditions: overcast.

Temperature: 7.0 Celsius.

Dewpoint: 4.0 Celsius.

Relative Humidity: 81%

Windchill Factor: 3.

Windchill Factor (Gusts): 2.

Winds: Northeast at 30 km/h or 16 knots.

Gust: 39 km/h or 21 knots.

Mean Sea level Pressure: 101.61 kilopascals.

Altimeter Setting (QNH): 101.59 kilopascals or 30.00 inches of mercury.

Horizontal visibility: 15.00 statute miles or 24.00 kilometers.

Height of the Ceiling: 762 metres ( 2500 feet ).

Coded METAR:

CYUL 252220Z 06016G21KT 15SM BKN025 OVC055 07/04 A3000 RMK SC7SC1 SLP161=